createdAt,value
2022-09-07T00:00:38.287Z,13.10
2022-09-07T00:01:42.102Z,12.40
2022-09-07T00:02:44.836Z,13.10
2022-09-07T00:03:48.541Z,13.10
2022-09-07T00:04:51.367Z,13.20
2022-09-07T00:05:55.170Z,13.20
2022-09-07T00:06:58.108Z,13.20
2022-09-07T00:08:02.368Z,13.20
2022-09-07T00:09:06.789Z,13.10
2022-09-07T00:10:10.319Z,13.10
2022-09-07T00:11:17.735Z,13.10
2022-09-07T00:12:20.744Z,13.10
2022-09-07T00:13:26.108Z,13.10
2022-09-07T00:14:28.814Z,11.90
2022-09-07T00:15:32.724Z,13.10
2022-09-07T00:16:35.518Z,13.10
2022-09-07T00:17:40.096Z,13.00
2022-09-07T00:18:46.011Z,13.00
2022-09-07T00:19:50.467Z,13.00
2022-09-07T00:20:59.832Z,12.90
2022-09-07T00:22:03.654Z,12.90
2022-09-07T00:23:07.591Z,13.00
2022-09-07T00:24:11.269Z,13.00
2022-09-07T00:25:14.225Z,13.00
2022-09-07T00:26:22.245Z,12.90
2022-09-07T00:27:24.942Z,13.00
2022-09-07T00:28:28.920Z,12.90
2022-09-07T00:29:32.002Z,12.90
2022-09-07T00:30:36.206Z,12.90
2022-09-07T00:31:39.381Z,12.90
2022-09-07T00:32:43.543Z,12.90
2022-09-07T00:33:49.251Z,12.90
2022-09-07T00:34:53.193Z,12.80
2022-09-07T00:35:55.892Z,12.80
2022-09-07T00:37:00.031Z,12.80
2022-09-07T00:38:02.766Z,12.80
2022-09-07T00:39:07.345Z,12.80
2022-09-07T00:40:10.481Z,12.70
2022-09-07T00:41:16.719Z,12.70
2022-09-07T00:42:22.378Z,12.70
2022-09-07T00:43:37.682Z,12.70
2022-09-07T00:45:04.152Z,12.70
2022-09-07T00:46:13.727Z,12.70
2022-09-07T00:47:21.073Z,14.70
2022-09-07T00:48:34.358Z,12.70
2022-09-07T00:49:40.121Z,12.70
2022-09-07T00:50:49.018Z,12.70
2022-09-07T00:51:57.946Z,12.60
2022-09-07T00:53:11.847Z,12.60
2022-09-07T00:54:19.590Z,12.60
2022-09-07T00:55:23.809Z,12.50
2022-09-07T00:56:33.478Z,12.60
2022-09-07T00:57:41.990Z,12.50
2022-09-07T00:58:45.164Z,12.50
2022-09-07T00:59:54.029Z,12.50
2022-09-07T01:00:57.040Z,12.50
2022-09-07T01:02:01.154Z,12.50
2022-09-07T01:03:05.859Z,12.50
2022-09-07T01:04:11.295Z,12.50
2022-09-07T01:05:22.182Z,12.40
2022-09-07T01:06:30.144Z,12.40
2022-09-07T01:07:33.449Z,12.40
2022-09-07T01:08:37.303Z,12.40
2022-09-07T01:09:43.273Z,12.50
2022-09-07T01:10:47.512Z,12.40
2022-09-07T01:11:52.626Z,12.50
2022-09-07T01:12:58.069Z,12.40
2022-09-07T01:14:04.321Z,12.40
2022-09-07T01:15:09.155Z,12.40
2022-09-07T01:16:25.373Z,12.50
2022-09-07T01:17:41.303Z,12.40
2022-09-07T01:19:00.705Z,12.40
2022-09-07T01:20:38.193Z,12.40
2022-09-07T01:22:01.544Z,12.40
2022-09-07T01:23:27.991Z,12.40
2022-09-07T01:24:45.256Z,12.30
2022-09-07T01:26:12.445Z,12.30
2022-09-07T01:27:51.496Z,12.30
2022-09-07T01:29:06.585Z,12.30
2022-09-07T01:30:13.519Z,12.20
2022-09-07T01:31:25.990Z,12.20
2022-09-07T01:32:49.164Z,12.10
2022-09-07T01:34:01.216Z,12.10
2022-09-07T01:35:15.439Z,12.00
2022-09-07T01:36:29.245Z,12.10
2022-09-07T01:37:44.249Z,12.00
2022-09-07T01:38:50.661Z,12.10
2022-09-07T01:40:04.668Z,12.10
2022-09-07T01:41:16.683Z,12.10
2022-09-07T01:42:25.724Z,12.10
2022-09-07T01:43:39.691Z,12.10
2022-09-07T01:44:52.337Z,12.00
2022-09-07T01:45:58.870Z,12.00
2022-09-07T01:47:07.634Z,11.90
2022-09-07T01:48:17.853Z,12.00
2022-09-07T01:49:28.206Z,12.00
2022-09-07T01:50:40.171Z,12.00
2022-09-07T01:51:48.305Z,10.50
2022-09-07T01:52:59.475Z,12.00
2022-09-07T01:54:11.020Z,12.00
2022-09-07T01:55:20.306Z,12.00
2022-09-07T01:56:29.084Z,11.90
2022-09-07T01:57:42.270Z,12.00
2022-09-07T01:58:52.229Z,12.00
2022-09-07T02:00:05.390Z,11.90
2022-09-07T02:01:26.328Z,12.00
2022-09-07T02:02:34.413Z,11.90
2022-09-07T02:03:45.273Z,11.90
2022-09-07T02:04:56.731Z,11.90
2022-09-07T02:06:04.923Z,11.90
2022-09-07T02:07:15.944Z,11.90
2022-09-07T02:08:26.301Z,11.90
2022-09-07T02:09:37.577Z,11.80
2022-09-07T02:10:47.606Z,11.80
2022-09-07T02:11:51.670Z,11.80
2022-09-07T02:13:04.454Z,11.80
2022-09-07T02:14:14.940Z,11.80
2022-09-07T02:15:27.063Z,11.80
2022-09-07T02:16:33.695Z,11.80
2022-09-07T02:17:43.983Z,11.70
2022-09-07T02:18:50.840Z,11.70
2022-09-07T02:20:00.178Z,11.70
2022-09-07T02:21:08.076Z,11.60
2022-09-07T02:22:18.352Z,11.70
2022-09-07T02:23:26.713Z,11.60
2022-09-07T02:24:35.430Z,11.60
2022-09-07T02:25:44.077Z,11.60
2022-09-07T02:26:51.520Z,11.60
2022-09-07T02:27:59.410Z,11.60
2022-09-07T02:29:03.141Z,11.60
2022-09-07T02:30:06.731Z,10.70
2022-09-07T02:31:12.204Z,11.60
2022-09-07T02:32:14.905Z,11.60
2022-09-07T02:33:18.861Z,11.70
2022-09-07T02:34:21.773Z,11.70
2022-09-07T02:35:25.608Z,11.60
2022-09-07T02:36:35.518Z,11.70
2022-09-07T02:37:41.331Z,11.70
2022-09-07T02:38:44.507Z,11.70
2022-09-07T02:39:49.528Z,11.70
2022-09-07T02:40:53.280Z,11.70
2022-09-07T02:41:56.959Z,11.70
2022-09-07T02:43:03.688Z,11.60
2022-09-07T02:44:14.370Z,11.60
2022-09-07T02:45:17.973Z,10.20
2022-09-07T02:46:40.611Z,11.60
2022-09-07T02:47:59.559Z,11.60
2022-09-07T02:49:10.972Z,11.60
2022-09-07T02:50:34.797Z,11.70
2022-09-07T02:51:46.871Z,11.60
2022-09-07T02:53:12.464Z,11.60
2022-09-07T02:54:31.182Z,11.60
2022-09-07T02:55:47.796Z,11.60
2022-09-07T02:57:00.939Z,11.60
2022-09-07T02:58:20.491Z,11.60
2022-09-07T02:59:43.654Z,11.70
2022-09-07T03:00:58.172Z,11.70
2022-09-07T03:02:10.839Z,11.60
2022-09-07T03:03:22.823Z,11.60
2022-09-07T03:04:38.493Z,11.50
2022-09-07T03:05:48.339Z,11.50
2022-09-07T03:06:57.922Z,9.80
2022-09-07T03:08:07.244Z,11.50
2022-09-07T03:09:16.246Z,11.50
2022-09-07T03:10:20.781Z,11.50
2022-09-07T03:11:24.051Z,11.40
2022-09-07T03:12:41.089Z,11.40
2022-09-07T03:13:43.346Z,11.40
2022-09-07T03:14:47.060Z,11.40
2022-09-07T03:15:52.447Z,11.40
2022-09-07T03:16:58.955Z,11.40
2022-09-07T03:18:06.187Z,11.30
2022-09-07T03:19:09.589Z,11.40
2022-09-07T03:20:13.158Z,11.30
2022-09-07T03:21:16.653Z,11.30
2022-09-07T03:22:19.009Z,11.20
2022-09-07T03:23:22.535Z,11.30
2022-09-07T03:24:25.001Z,11.30
2022-09-07T03:25:28.439Z,11.30
2022-09-07T03:26:30.904Z,11.30
2022-09-07T03:27:36.750Z,11.20
2022-09-07T03:28:40.195Z,11.20
2022-09-07T03:29:42.393Z,11.10
2022-09-07T03:30:49.439Z,11.10
2022-09-07T03:31:51.816Z,11.10
2022-09-07T03:32:55.118Z,11.10
2022-09-07T03:33:58.933Z,11.10
2022-09-07T03:35:03.159Z,11.10
2022-09-07T03:36:07.119Z,11.10
2022-09-07T03:37:09.887Z,11.10
2022-09-07T03:38:13.064Z,11.10
2022-09-07T03:39:15.738Z,11.00
2022-09-07T03:40:19.362Z,11.00
2022-09-07T03:41:21.897Z,11.00
2022-09-07T03:42:25.478Z,11.00
2022-09-07T03:43:28.412Z,11.00
2022-09-07T03:44:31.888Z,11.00
2022-09-07T03:45:34.180Z,11.00
2022-09-07T03:46:37.616Z,11.00
2022-09-07T03:47:41.104Z,11.00
2022-09-07T03:48:44.986Z,11.00
2022-09-07T03:49:49.382Z,11.00
2022-09-07T03:50:58.006Z,11.00
2022-09-07T03:52:00.979Z,11.00
2022-09-07T03:53:04.150Z,11.00
2022-09-07T03:54:06.827Z,11.00
2022-09-07T03:55:10.557Z,11.00
2022-09-07T03:56:16.222Z,11.00
2022-09-07T03:57:20.397Z,11.00
2022-09-07T03:58:22.896Z,11.00
2022-09-07T03:59:26.318Z,11.00
2022-09-07T04:00:28.778Z,12.70
2022-09-07T04:01:32.093Z,9.30
2022-09-07T04:02:34.667Z,11.00
2022-09-07T04:03:39.657Z,11.00
2022-09-07T04:04:42.539Z,11.10
2022-09-07T04:05:47.255Z,11.00
2022-09-07T04:06:53.602Z,11.00
2022-09-07T04:07:56.376Z,11.00
2022-09-07T04:09:03.263Z,11.00
2022-09-07T04:10:06.283Z,11.00
2022-09-07T04:11:13.028Z,11.00
2022-09-07T04:12:15.288Z,11.00
2022-09-07T04:13:19.001Z,10.90
2022-09-07T04:14:22.329Z,10.90
2022-09-07T04:15:25.000Z,10.90
2022-09-07T04:16:29.782Z,10.90
2022-09-07T04:17:32.324Z,10.90
2022-09-07T04:18:37.510Z,10.80
2022-09-07T04:19:40.977Z,10.90
2022-09-07T04:20:47.492Z,10.90
2022-09-07T04:21:51.538Z,10.90
2022-09-07T04:22:54.470Z,10.90
2022-09-07T04:23:59.177Z,11.00
2022-09-07T04:25:01.665Z,10.90
2022-09-07T04:26:04.984Z,10.90
2022-09-07T04:27:07.491Z,11.00
2022-09-07T04:28:10.968Z,11.00
2022-09-07T04:29:14.942Z,11.00
2022-09-07T04:30:17.510Z,11.00
2022-09-07T04:31:21.724Z,11.10
2022-09-07T04:32:24.299Z,11.30
2022-09-07T04:33:27.654Z,11.50
2022-09-07T04:34:30.053Z,11.80
2022-09-07T04:35:36.660Z,12.10
2022-09-07T04:36:40.337Z,12.40
2022-09-07T04:37:44.748Z,12.70
2022-09-07T04:38:49.497Z,12.90
2022-09-07T04:39:52.171Z,13.30
2022-09-07T04:41:01.628Z,13.70
2022-09-07T04:42:05.380Z,14.10
2022-09-07T04:43:09.947Z,14.50
2022-09-07T04:44:16.797Z,14.80
2022-09-07T04:45:19.531Z,14.90
2022-09-07T04:46:27.057Z,15.10
2022-09-07T04:47:31.497Z,15.20
2022-09-07T04:48:34.264Z,15.20
2022-09-07T04:49:37.936Z,16.80
2022-09-07T04:50:40.353Z,15.40
2022-09-07T04:51:45.072Z,15.30
2022-09-07T04:52:47.624Z,15.50
2022-09-07T04:53:53.165Z,15.60
2022-09-07T04:54:55.510Z,15.70
2022-09-07T04:55:59.393Z,15.70
2022-09-07T04:57:02.773Z,15.80
2022-09-07T04:58:05.144Z,15.80
2022-09-07T04:59:09.139Z,15.90
2022-09-07T05:00:12.368Z,16.00
2022-09-07T05:01:18.194Z,16.00
2022-09-07T05:02:20.529Z,16.10
2022-09-07T05:03:23.855Z,16.10
2022-09-07T05:04:26.256Z,16.10
2022-09-07T05:05:29.531Z,16.10
2022-09-07T05:06:33.273Z,16.20
2022-09-07T05:07:37.004Z,16.30
2022-09-07T05:08:42.661Z,16.30
2022-09-07T05:09:45.281Z,16.40
2022-09-07T05:10:52.656Z,16.50
2022-09-07T05:11:55.604Z,16.60
2022-09-07T05:12:59.900Z,16.70
2022-09-07T05:14:03.746Z,16.80
2022-09-07T05:15:07.958Z,16.90
2022-09-07T05:16:11.953Z,16.90
2022-09-07T05:17:15.441Z,17.00
2022-09-07T05:18:17.845Z,17.00
2022-09-07T05:19:21.573Z,16.90
2022-09-07T05:20:24.714Z,16.90
2022-09-07T05:21:30.597Z,16.90
2022-09-07T05:22:34.562Z,16.90
2022-09-07T05:23:39.662Z,17.00
2022-09-07T05:24:41.889Z,17.10
2022-09-07T05:25:46.321Z,17.10
2022-09-07T05:26:48.722Z,19.40
2022-09-07T05:27:52.695Z,17.20
2022-09-07T05:31:42.261Z,17.10
2022-09-07T05:32:46.467Z,17.20
2022-09-07T05:35:14.720Z,17.20
2022-09-07T05:36:17.849Z,17.30
2022-09-07T05:37:21.475Z,17.30
2022-09-07T05:38:25.885Z,17.40
2022-09-07T05:39:31.094Z,17.50
2022-09-07T05:40:38.470Z,17.60
2022-09-07T05:41:43.784Z,17.80
2022-09-07T05:42:46.397Z,18.00
2022-09-07T05:45:14.314Z,18.30
2022-09-07T05:46:17.981Z,18.50
2022-09-07T05:47:21.334Z,18.60
2022-09-07T05:48:24.610Z,19.70
2022-09-07T05:49:28.058Z,18.90
2022-09-07T05:50:30.484Z,19.00
2022-09-07T05:51:34.650Z,19.00
2022-09-07T05:52:37.404Z,17.90
2022-09-07T05:53:43.147Z,19.00
2022-09-07T05:54:47.411Z,19.20
2022-09-07T05:55:50.927Z,19.20
2022-09-07T05:56:53.251Z,19.30
2022-09-07T05:57:56.524Z,19.40
2022-09-07T05:58:59.143Z,19.50
2022-09-07T06:00:03.597Z,19.60
2022-09-07T06:01:14.194Z,19.70
2022-09-07T06:02:17.583Z,19.80
2022-09-07T06:03:20.152Z,18.50
2022-09-07T06:04:24.893Z,19.80
2022-09-07T06:05:27.913Z,19.80
2022-09-07T06:06:31.341Z,19.80
2022-09-07T06:07:33.591Z,19.80
2022-09-07T06:08:40.228Z,19.80
2022-09-07T06:11:12.325Z,19.90
2022-09-07T06:12:14.647Z,20.00
2022-09-07T06:13:19.227Z,20.10
2022-09-07T06:14:21.473Z,20.10
2022-09-07T06:15:25.242Z,20.10
2022-09-07T06:16:27.631Z,20.20
2022-09-07T06:17:31.562Z,19.00
2022-09-07T06:18:36.525Z,20.30
2022-09-07T06:19:39.903Z,20.40
2022-09-07T06:20:42.682Z,19.10
2022-09-07T06:21:45.929Z,20.40
2022-09-07T06:22:48.305Z,20.40
2022-09-07T06:23:53.344Z,20.40
2022-09-07T06:24:55.878Z,20.40
2022-09-07T06:26:00.443Z,20.50
2022-09-07T06:27:04.632Z,21.20
2022-09-07T06:28:08.241Z,20.40
2022-09-07T06:29:12.358Z,20.40
2022-09-07T06:30:16.041Z,20.20
2022-09-07T06:31:20.828Z,20.30
2022-09-07T06:33:48.807Z,20.40
2022-09-07T06:34:51.250Z,20.50
2022-09-07T06:35:58.856Z,20.60
2022-09-07T06:37:02.674Z,20.60
2022-09-07T06:38:05.065Z,20.60
2022-09-07T06:39:08.611Z,20.70
2022-09-07T06:40:12.195Z,20.80
2022-09-07T06:42:43.883Z,20.90
2022-09-07T06:43:47.176Z,21.00
2022-09-07T06:44:50.450Z,21.10
2022-09-07T06:45:54.250Z,21.10
2022-09-07T06:47:05.121Z,21.20
2022-09-07T06:48:08.914Z,21.20
2022-09-07T06:49:11.427Z,21.00
2022-09-07T06:50:15.240Z,21.00
2022-09-07T06:51:19.772Z,20.90
2022-09-07T06:52:23.228Z,21.00
2022-09-07T06:56:01.290Z,20.50
2022-09-07T06:57:09.390Z,20.40
2022-09-07T06:58:14.373Z,20.20
2022-09-07T06:59:17.179Z,20.00
2022-09-07T07:00:20.804Z,20.20
2022-09-07T07:01:24.617Z,20.30
2022-09-07T07:02:28.323Z,20.30
2022-09-07T07:03:30.716Z,20.40
2022-09-07T07:04:40.200Z,20.50
2022-09-07T07:05:51.349Z,20.70
2022-09-07T07:06:54.727Z,20.80
2022-09-07T07:07:57.345Z,21.00
2022-09-07T07:09:01.456Z,21.00
2022-09-07T07:10:04.429Z,21.00
2022-09-07T07:11:10.303Z,21.10
2022-09-07T07:12:12.635Z,21.10
2022-09-07T07:14:19.491Z,21.10
2022-09-07T07:15:29.021Z,21.10
2022-09-07T07:16:31.695Z,21.00
2022-09-07T07:17:35.180Z,20.90
2022-09-07T07:18:37.952Z,20.90
2022-09-07T07:19:41.346Z,20.90
2022-09-07T07:20:44.428Z,20.90
2022-09-07T07:22:10.719Z,20.80
2022-09-07T07:23:12.929Z,20.70
2022-09-07T07:24:15.725Z,22.00
2022-09-07T07:25:19.580Z,20.90
2022-09-07T07:26:27.068Z,20.90
2022-09-07T07:27:31.590Z,21.00
2022-09-07T07:30:00.676Z,21.00
2022-09-07T07:31:09.774Z,21.00
2022-09-07T07:32:14.965Z,21.00
2022-09-07T07:33:17.343Z,21.00
2022-09-07T07:34:21.133Z,21.20
2022-09-07T07:35:24.176Z,21.20
2022-09-07T07:36:28.902Z,21.20
2022-09-07T07:37:32.484Z,21.20
2022-09-07T07:40:16.977Z,21.10
2022-09-07T07:42:50.094Z,21.20
2022-09-07T07:43:58.424Z,21.10
2022-09-07T07:46:26.506Z,20.70
2022-09-07T07:47:29.202Z,20.60
2022-09-07T07:48:33.594Z,20.60
2022-09-07T07:49:37.201Z,20.30
2022-09-07T07:50:39.573Z,20.30
2022-09-07T07:54:30.229Z,20.30
2022-09-07T07:55:48.814Z,20.40
2022-09-07T07:56:52.476Z,20.40
2022-09-07T07:57:54.685Z,20.40
2022-09-07T07:58:59.384Z,20.50
2022-09-07T08:00:02.146Z,20.40
2022-09-07T08:01:16.359Z,20.50
2022-09-07T08:02:19.710Z,20.50
2022-09-07T08:03:23.519Z,20.50
2022-09-07T08:04:26.932Z,20.50
2022-09-07T08:05:29.351Z,20.50
2022-09-07T08:06:32.739Z,20.50
2022-09-07T08:07:36.222Z,20.60
2022-09-07T08:08:39.010Z,20.60
2022-09-07T08:09:44.205Z,21.10
2022-09-07T08:10:48.097Z,20.70
2022-09-07T08:11:51.675Z,20.60
2022-09-07T08:12:54.092Z,20.50
2022-09-07T08:14:00.359Z,20.50
2022-09-07T08:15:02.613Z,20.60
2022-09-07T08:16:07.824Z,20.60
2022-09-07T08:17:12.152Z,20.40
2022-09-07T08:18:17.401Z,20.10
2022-09-07T08:19:21.114Z,19.90
2022-09-07T08:20:24.879Z,19.80
2022-09-07T08:21:28.521Z,19.80
2022-09-07T08:22:34.779Z,18.00
2022-09-07T08:23:40.815Z,19.40
2022-09-07T08:24:44.700Z,19.30
2022-09-07T08:25:51.736Z,19.30
2022-09-07T08:26:55.115Z,19.50
2022-09-07T08:27:58.446Z,19.20
2022-09-07T08:29:03.627Z,20.70
2022-09-07T08:30:07.539Z,19.20
2022-09-07T08:31:13.279Z,19.00
2022-09-07T08:32:16.806Z,19.20
2022-09-07T08:33:19.190Z,19.30
2022-09-07T08:34:22.960Z,19.30
2022-09-07T08:35:25.446Z,19.40
2022-09-07T08:36:31.835Z,19.50
2022-09-07T08:37:35.287Z,19.60
2022-09-07T08:38:38.659Z,19.70
2022-09-07T08:39:42.713Z,19.80
2022-09-07T08:40:45.196Z,19.80
2022-09-07T08:42:23.085Z,19.70
2022-09-07T08:43:49.445Z,19.50
2022-09-07T08:45:01.432Z,19.50
2022-09-07T08:46:14.463Z,19.60
2022-09-07T08:47:28.620Z,19.60
2022-09-07T08:48:35.397Z,19.70
2022-09-07T08:49:46.930Z,19.70
2022-09-07T08:50:57.989Z,19.80
2022-09-07T08:52:05.517Z,19.70
2022-09-07T08:53:14.348Z,19.80
2022-09-07T08:54:17.484Z,19.90
2022-09-07T08:55:28.133Z,20.00
2022-09-07T08:56:35.878Z,20.00
2022-09-07T08:57:47.222Z,20.10
2022-09-07T08:58:51.398Z,20.20
2022-09-07T09:00:05.480Z,20.30
2022-09-07T09:04:16.948Z,20.30
2022-09-07T09:05:34.033Z,20.40
2022-09-07T09:06:11.036Z,20.30
2022-09-07T09:06:50.230Z,20.60
2022-09-07T09:08:13.387Z,20.70
2022-09-07T09:09:31.965Z,20.70
2022-09-07T09:10:47.858Z,20.80
2022-09-07T09:12:04.636Z,20.90
2022-09-07T09:13:18.494Z,20.80
2022-09-07T09:14:33.622Z,20.80
2022-09-07T09:15:52.457Z,20.60
2022-09-07T09:17:04.357Z,20.60
2022-09-07T09:18:24.744Z,20.60
2022-09-07T09:19:54.542Z,20.50
2022-09-07T09:20:59.269Z,20.50
2022-09-07T09:22:16.209Z,21.70
2022-09-07T09:23:24.673Z,20.50
2022-09-07T09:24:37.559Z,20.50
2022-09-07T09:25:49.133Z,20.50
2022-09-07T09:26:58.465Z,20.50
2022-09-07T09:28:01.193Z,19.40
2022-09-07T09:29:14.545Z,20.50
2022-09-07T09:30:20.087Z,20.50
2022-09-07T09:31:28.277Z,20.50
2022-09-07T09:32:33.468Z,20.50
2022-09-07T09:33:37.027Z,20.30
2022-09-07T09:34:40.523Z,20.30
2022-09-07T09:35:45.150Z,20.40
2022-09-07T09:36:50.355Z,20.50
2022-09-07T09:37:52.635Z,20.40
2022-09-07T09:38:57.146Z,20.60
2022-09-07T09:40:02.831Z,20.40
2022-09-07T09:41:10.075Z,20.20
2022-09-07T09:42:18.090Z,20.20
2022-09-07T09:43:25.163Z,20.20
2022-09-07T09:44:35.488Z,20.30
2022-09-07T09:47:30.508Z,20.30
2022-09-07T09:48:35.491Z,20.30
2022-09-07T09:49:42.045Z,20.20
2022-09-07T09:52:29.777Z,20.30
2022-09-07T09:53:41.155Z,20.40
2022-09-07T09:54:50.938Z,20.50
2022-09-07T09:55:54.924Z,19.90
2022-09-07T09:56:58.407Z,20.80
2022-09-07T10:05:01.132Z,20.40
2022-09-07T10:06:07.756Z,20.40
2022-09-07T10:07:20.886Z,20.50
2022-09-07T10:08:28.849Z,20.70
2022-09-07T10:09:38.102Z,20.70
2022-09-07T10:10:57.394Z,20.70
2022-09-07T10:12:06.854Z,20.60
2022-09-07T10:13:22.847Z,20.70
2022-09-07T10:14:29.605Z,20.70
2022-09-07T10:15:41.306Z,20.80
2022-09-07T10:16:45.103Z,20.80
2022-09-07T10:17:52.276Z,20.80
2022-09-07T10:18:57.178Z,20.70
2022-09-07T10:20:03.526Z,20.80
2022-09-07T10:21:23.596Z,20.80
2022-09-07T10:22:34.251Z,20.80
2022-09-07T10:23:37.729Z,20.70
2022-09-07T10:24:41.524Z,20.70
2022-09-07T10:25:45.454Z,20.60
2022-09-07T10:26:48.710Z,20.60
2022-09-07T10:28:03.710Z,20.60
2022-09-07T10:29:12.560Z,20.60
2022-09-07T10:30:18.799Z,20.50
2022-09-07T10:31:31.621Z,20.60
2022-09-07T10:32:59.561Z,20.60
2022-09-07T10:34:31.540Z,20.70
2022-09-07T10:35:42.330Z,20.70
2022-09-07T10:36:51.986Z,20.80
2022-09-07T10:38:10.937Z,20.80
2022-09-07T10:39:18.140Z,20.90
2022-09-07T10:40:33.000Z,21.00
2022-09-07T10:41:48.536Z,21.10
2022-09-07T10:44:43.281Z,21.20
2022-09-07T10:46:08.779Z,21.30
2022-09-07T10:47:27.334Z,21.30
2022-09-07T10:48:43.558Z,21.20
2022-09-07T10:51:27.501Z,21.30
2022-09-07T10:52:40.095Z,21.30
2022-09-07T10:55:28.188Z,21.20
2022-09-07T10:56:37.860Z,21.10
2022-09-07T10:57:57.441Z,21.10
2022-09-07T10:59:16.970Z,21.20
2022-09-07T11:00:21.732Z,21.10
2022-09-07T11:01:38.628Z,20.40
2022-09-07T11:04:50.636Z,21.00
2022-09-07T11:06:06.631Z,21.10
2022-09-07T11:07:28.347Z,21.30
2022-09-07T11:10:25.009Z,21.40
2022-09-07T11:13:01.222Z,21.20
2022-09-07T11:14:13.563Z,21.20
2022-09-07T11:15:23.930Z,21.20
2022-09-07T11:18:02.558Z,21.20
2022-09-07T11:20:45.569Z,21.20
2022-09-07T11:21:57.935Z,21.20
2022-09-07T11:23:13.722Z,21.30
2022-09-07T11:24:27.928Z,21.30
2022-09-07T11:25:37.722Z,21.50
2022-09-07T11:26:48.075Z,21.50
2022-09-07T11:27:57.369Z,21.50
2022-09-07T11:30:35.813Z,21.60
2022-09-07T11:31:46.190Z,21.50
2022-09-07T11:33:05.163Z,21.50
2022-09-07T11:34:26.086Z,21.50
2022-09-07T11:35:42.347Z,21.50
2022-09-07T11:36:55.021Z,21.50
2022-09-07T11:38:06.649Z,20.60
2022-09-07T11:39:19.904Z,21.60
2022-09-07T11:40:29.142Z,21.60
2022-09-07T11:41:40.854Z,21.60
2022-09-07T11:42:51.682Z,21.70
2022-09-07T11:44:03.197Z,21.80
2022-09-07T11:45:15.458Z,21.90
2022-09-07T11:46:28.279Z,22.00
2022-09-07T11:47:41.502Z,22.00
2022-09-07T11:48:50.439Z,22.00
2022-09-07T11:49:58.497Z,22.00
2022-09-07T11:51:10.282Z,22.00
2022-09-07T11:52:29.168Z,21.90
2022-09-07T11:53:37.679Z,22.00
2022-09-07T11:54:48.872Z,21.90
2022-09-07T11:55:59.978Z,21.90
2022-09-07T11:57:33.285Z,20.80
2022-09-07T11:59:03.586Z,21.70
2022-09-07T12:00:14.011Z,21.60
2022-09-07T12:01:31.793Z,21.60
2022-09-07T12:03:00.315Z,21.60
2022-09-07T12:04:27.490Z,21.60
2022-09-07T12:05:55.644Z,21.70
2022-09-07T12:07:32.078Z,21.80
2022-09-07T12:08:56.697Z,21.90
2022-09-07T12:10:22.047Z,22.00
2022-09-07T12:12:07.657Z,22.10
2022-09-07T12:13:48.597Z,22.20
2022-09-07T12:15:12.425Z,22.30
2022-09-07T12:16:26.515Z,22.30
2022-09-07T12:17:57.257Z,22.20
2022-09-07T12:19:18.139Z,22.20
2022-09-07T12:20:24.928Z,22.20
2022-09-07T12:21:42.679Z,22.10
2022-09-07T12:23:07.217Z,22.10
2022-09-07T12:24:49.890Z,22.00
2022-09-07T12:25:53.063Z,22.00
2022-09-07T12:26:58.299Z,22.10
2022-09-07T12:28:02.337Z,22.20
2022-09-07T12:29:19.134Z,22.30
2022-09-07T12:31:00.297Z,22.40
2022-09-07T12:33:33.451Z,22.80
2022-09-07T12:35:00.939Z,22.90
2022-09-07T12:36:49.640Z,22.90
2022-09-07T12:37:53.401Z,22.80
2022-09-07T12:39:21.355Z,22.90
2022-09-07T12:40:52.223Z,22.90
2022-09-07T12:42:37.783Z,22.90
2022-09-07T12:43:54.111Z,22.90
2022-09-07T12:45:30.678Z,23.00
2022-09-07T12:47:08.514Z,22.90
2022-09-07T12:48:32.926Z,22.80
2022-09-07T12:50:06.608Z,22.50
2022-09-07T12:53:15.496Z,23.70
2022-09-07T12:54:27.934Z,22.60
2022-09-07T12:57:33.065Z,22.70
2022-09-07T12:58:52.995Z,22.80
2022-09-07T13:00:11.750Z,22.80
2022-09-07T13:01:32.614Z,23.00
2022-09-07T13:03:07.375Z,23.10
2022-09-07T13:04:46.424Z,23.50
2022-09-07T13:06:04.133Z,23.20
2022-09-07T13:07:34.464Z,23.30
2022-09-07T13:09:10.059Z,23.40
2022-09-07T13:10:30.795Z,23.40
2022-09-07T13:11:38.339Z,23.20
2022-09-07T13:12:57.353Z,23.10
2022-09-07T13:14:04.957Z,23.00
2022-09-07T13:15:35.693Z,23.00
2022-09-07T13:18:04.931Z,23.00
2022-09-07T13:19:14.638Z,23.00
2022-09-07T13:20:21.580Z,23.00
2022-09-07T13:21:48.885Z,23.10
2022-09-07T13:22:56.260Z,23.30
2022-09-07T13:24:47.658Z,23.20
2022-09-07T13:26:00.422Z,23.20
2022-09-07T13:27:26.659Z,23.20
2022-09-07T13:28:56.314Z,23.10
2022-09-07T13:30:03.217Z,23.10
2022-09-07T13:31:45.167Z,23.20
2022-09-07T13:34:49.322Z,23.30
2022-09-07T13:35:57.077Z,23.30
2022-09-07T13:37:02.543Z,23.30
2022-09-07T13:38:05.580Z,23.30
2022-09-07T13:39:15.367Z,21.80
2022-09-07T13:40:22.219Z,23.20
2022-09-07T13:41:35.520Z,23.20
2022-09-07T13:42:40.129Z,23.10
2022-09-07T13:43:47.780Z,23.00
2022-09-07T13:44:59.912Z,23.10
2022-09-07T13:46:15.000Z,23.00
2022-09-07T13:47:34.666Z,23.00
2022-09-07T13:48:46.334Z,23.00
2022-09-07T13:50:16.928Z,23.00
2022-09-07T13:51:25.218Z,23.10
2022-09-07T13:52:43.807Z,23.20
2022-09-07T13:54:04.148Z,23.20
2022-09-07T13:55:27.642Z,23.10
2022-09-07T13:56:41.123Z,23.10
2022-09-07T13:58:01.568Z,23.20
2022-09-07T13:59:18.437Z,23.10
2022-09-07T14:00:21.031Z,23.20
2022-09-07T14:01:28.928Z,23.00
2022-09-07T14:02:35.391Z,23.00
2022-09-07T14:03:46.444Z,22.90
2022-09-07T14:04:52.184Z,23.00
2022-09-07T14:06:31.859Z,22.90
2022-09-07T14:07:35.011Z,22.90
2022-09-07T14:08:39.954Z,23.00
2022-09-07T14:09:45.320Z,23.00
2022-09-07T14:10:49.929Z,23.10
2022-09-07T14:11:55.364Z,23.20
2022-09-07T14:13:07.697Z,23.20
2022-09-07T14:14:16.226Z,23.30
2022-09-07T14:15:23.359Z,23.30
2022-09-07T14:16:27.791Z,23.30
2022-09-07T14:17:32.513Z,24.70
2022-09-07T14:18:35.302Z,23.30
2022-09-07T14:19:46.415Z,23.20
2022-09-07T14:20:51.473Z,23.20
2022-09-07T14:21:56.870Z,23.20
2022-09-07T14:23:01.434Z,23.20
2022-09-07T14:24:18.955Z,23.20
2022-09-07T14:25:23.349Z,23.10
2022-09-07T14:26:26.448Z,23.00
2022-09-07T14:27:35.247Z,22.60
2022-09-07T14:28:41.679Z,23.00
2022-09-07T14:29:45.153Z,23.00
2022-09-07T14:30:51.344Z,22.90
2022-09-07T14:31:56.840Z,22.80
2022-09-07T14:33:05.997Z,22.60
2022-09-07T14:34:09.760Z,22.60
2022-09-07T14:35:15.290Z,22.60
2022-09-07T14:36:43.610Z,22.60
2022-09-07T14:37:46.982Z,22.60
2022-09-07T14:39:06.238Z,22.70
2022-09-07T14:40:19.916Z,22.70
2022-09-07T14:41:24.062Z,22.70
2022-09-07T14:42:27.980Z,22.70
2022-09-07T14:43:33.686Z,22.40
2022-09-07T14:44:40.480Z,22.50
2022-09-07T14:45:43.676Z,22.40
2022-09-07T14:46:54.620Z,22.30
2022-09-07T14:48:01.568Z,22.30
2022-09-07T14:49:18.060Z,21.70
2022-09-07T14:50:30.882Z,21.50
2022-09-07T14:51:36.819Z,22.40
2022-09-07T14:53:33.868Z,22.50
2022-09-07T14:54:10.799Z,22.60
2022-09-07T14:55:30.843Z,22.60
2022-09-07T14:56:35.634Z,22.40
2022-09-07T14:57:39.678Z,22.40
2022-09-07T14:58:42.293Z,22.30
2022-09-07T14:59:47.764Z,22.20
2022-09-07T15:02:37.588Z,22.30
2022-09-07T15:04:00.234Z,22.20
2022-09-07T15:05:23.170Z,22.10
2022-09-07T15:08:02.761Z,22.00
2022-09-07T15:09:07.212Z,21.90
2022-09-07T15:10:16.135Z,21.90
2022-09-07T15:11:39.981Z,21.90
2022-09-07T15:12:43.553Z,21.90
2022-09-07T15:13:55.165Z,21.80
2022-09-07T15:14:58.018Z,21.80
2022-09-07T15:16:03.820Z,21.80
2022-09-07T15:18:54.368Z,21.80
2022-09-07T15:19:58.531Z,23.70
2022-09-07T15:21:03.199Z,21.80
2022-09-07T15:22:13.645Z,21.80
2022-09-07T15:23:19.609Z,21.80
2022-09-07T15:24:23.058Z,21.80
2022-09-07T15:25:25.797Z,21.80
2022-09-07T15:28:03.331Z,22.90
2022-09-07T15:29:08.791Z,21.90
2022-09-07T15:30:12.215Z,21.80
2022-09-07T15:32:42.574Z,22.00
2022-09-07T15:33:48.376Z,22.00
2022-09-07T15:34:52.105Z,22.10
2022-09-07T15:35:55.846Z,22.00
2022-09-07T15:37:00.924Z,22.10
2022-09-07T15:38:05.550Z,22.10
2022-09-07T15:39:17.182Z,22.10
2022-09-07T15:40:25.253Z,22.10
2022-09-07T15:41:29.577Z,21.90
2022-09-07T15:43:56.810Z,21.70
2022-09-07T15:45:01.929Z,21.50
2022-09-07T15:46:05.290Z,21.50
2022-09-07T15:48:31.391Z,21.40
2022-09-07T15:49:34.273Z,21.30
2022-09-07T15:50:37.962Z,21.20
2022-09-07T15:54:06.656Z,21.20
2022-09-07T15:54:35.048Z,21.20
2022-09-07T15:55:39.499Z,21.10
2022-09-07T15:57:47.505Z,21.10
2022-09-07T15:58:11.848Z,21.00